Terminal Aerodrome Forecast
Issued by NWS

Home | Current Version | Previous Version | Graphics & Text | Print | Product List | Glossary On
Versions: 1 2 3 4 5 6 7 8 9 10 11 12 13 14 15 16 17
000
FTUS43 KGRB 221100
TAFRHI
TAF
KRHI 221125Z 2212/2312 32010G17KT P6SM SCT025 BKN035
      TEMPO 2212/2216 BKN025
     FM221600 33012G20KT P6SM BKN040
     FM222200 34006KT P6SM FEW040
     FM230100 00000KT P6SM SKC=

USA.gov is the U.S. government's official web portal to all federal, state and local government web resources and services.